createdAt,value
2019-01-20T00:01:39.803Z,32.73
2019-01-20T00:04:06.372Z,29.17
2019-01-20T00:06:32.917Z,29.20
2019-01-20T00:08:59.635Z,30.57
2019-01-20T00:11:26.294Z,29.20
2019-01-20T00:13:52.966Z,28.70
2019-01-20T00:16:19.485Z,30.37
2019-01-20T00:18:46.187Z,28.53
2019-01-20T00:21:12.950Z,27.60
2019-01-20T00:23:39.490Z,29.40
2019-01-20T00:26:06.160Z,29.50
2019-01-20T00:28:32.665Z,28.90
2019-01-20T00:30:59.325Z,29.00
2019-01-20T00:33:25.850Z,28.60
2019-01-20T00:35:52.517Z,30.47
2019-01-20T00:38:19.044Z,27.50
2019-01-20T00:40:45.682Z,27.30
2019-01-20T00:43:12.118Z,28.77
2019-01-20T00:45:38.691Z,29.30
2019-01-20T00:48:05.412Z,29.07
2019-01-20T00:50:31.972Z,29.30
2019-01-20T00:52:58.493Z,28.20
2019-01-20T00:55:25.176Z,29.43
2019-01-20T00:57:51.932Z,27.20
2019-01-20T01:00:24.665Z,28.53
2019-01-20T01:02:51.532Z,28.80
2019-01-20T01:05:19.211Z,28.00
2019-01-20T01:07:45.929Z,30.47
2019-01-20T01:10:13.009Z,30.03
2019-01-20T01:12:39.590Z,31.93
2019-01-20T01:15:08.544Z,32.50
2019-01-20T01:17:35.137Z,30.40
2019-01-20T01:20:03.660Z,28.53
2019-01-20T01:22:30.241Z,30.57
2019-01-20T01:24:56.817Z,29.50
2019-01-20T01:27:23.330Z,30.47
2019-01-20T01:29:49.900Z,31.93
2019-01-20T01:32:16.425Z,30.27
2019-01-20T01:34:43.029Z,31.27
2019-01-20T01:37:09.556Z,31.17
2019-01-20T01:39:36.109Z,30.67
2019-01-20T01:42:02.968Z,28.77
2019-01-20T01:44:29.520Z,29.80
2019-01-20T01:46:56.095Z,29.30
2019-01-20T01:49:22.669Z,27.93
2019-01-20T01:51:49.333Z,31.20
2019-01-20T01:54:16.187Z,29.83
2019-01-20T01:56:42.709Z,31.03
2019-01-20T01:59:09.226Z,31.30
2019-01-20T02:01:35.743Z,29.50
2019-01-20T02:04:02.297Z,29.80
2019-01-20T02:06:28.927Z,30.20
2019-01-20T02:08:55.502Z,29.40
2019-01-20T02:11:22.030Z,30.57
2019-01-20T02:13:48.600Z,30.73
2019-01-20T02:16:15.168Z,30.77
2019-01-20T02:18:41.693Z,32.00
2019-01-20T02:21:08.319Z,30.40
2019-01-20T02:23:34.981Z,31.00
2019-01-20T02:26:01.643Z,29.17
2019-01-20T02:28:28.292Z,29.87
2019-01-20T02:30:54.857Z,29.30
2019-01-20T02:33:21.426Z,30.93
2019-01-20T02:35:47.962Z,29.80
2019-01-20T02:38:14.533Z,30.67
2019-01-20T02:40:41.049Z,30.60
2019-01-20T02:43:07.725Z,31.80
2019-01-20T02:45:34.260Z,29.50
2019-01-20T02:48:00.840Z,31.17
2019-01-20T02:50:27.361Z,29.37
2019-01-20T02:52:54.021Z,27.97
2019-01-20T02:55:20.803Z,27.80
2019-01-20T02:57:47.438Z,28.20
2019-01-20T03:00:19.032Z,27.47
2019-01-20T03:02:47.708Z,28.80
2019-01-20T03:05:15.338Z,32.30
2019-01-20T03:07:43.676Z,29.90
2019-01-20T03:10:12.045Z,29.77
2019-01-20T03:12:38.658Z,29.93
2019-01-20T03:15:08.487Z,30.90
2019-01-20T03:17:35.105Z,30.50
2019-01-20T03:20:04.336Z,29.37
2019-01-20T03:22:30.902Z,27.60
2019-01-20T03:24:57.532Z,29.67
2019-01-20T03:27:24.301Z,31.53
2019-01-20T03:29:50.962Z,31.30
2019-01-20T03:32:17.736Z,31.70
2019-01-20T03:34:44.489Z,29.90
2019-01-20T03:37:11.116Z,26.73
2019-01-20T03:39:37.911Z,29.60
2019-01-20T03:42:11.532Z,30.10
2019-01-20T03:44:32.983Z,29.50
2019-01-20T03:46:59.632Z,29.50
2019-01-20T03:49:26.300Z,32.30
2019-01-20T03:51:52.877Z,29.43
2019-01-20T03:54:19.403Z,30.00
2019-01-20T03:56:45.977Z,30.73
2019-01-20T03:59:12.600Z,29.67
2019-01-20T04:01:39.268Z,27.40
2019-01-20T04:04:05.890Z,27.23
2019-01-20T04:06:32.561Z,26.67
2019-01-20T04:08:59.098Z,27.07
2019-01-20T04:11:25.738Z,26.70
2019-01-20T04:13:52.252Z,25.77
2019-01-20T04:16:18.781Z,26.10
2019-01-20T04:18:45.445Z,26.87
2019-01-20T04:21:11.909Z,24.93
2019-01-20T04:23:38.479Z,24.53
2019-01-20T04:26:05.092Z,24.50
2019-01-20T04:28:31.794Z,23.80
2019-01-20T04:30:58.356Z,22.37
2019-01-20T04:33:24.917Z,24.00
2019-01-20T04:35:51.481Z,23.67
2019-01-20T04:38:17.993Z,24.77
2019-01-20T04:40:44.616Z,24.97
2019-01-20T04:43:11.289Z,24.13
2019-01-20T04:45:37.811Z,23.27
2019-01-20T04:48:04.586Z,25.30
2019-01-20T04:50:31.177Z,25.80
2019-01-20T04:52:57.850Z,25.60
2019-01-20T04:55:24.471Z,25.20
2019-01-20T04:57:52.809Z,23.60
2019-01-20T05:00:21.401Z,26.27
2019-01-20T05:02:47.916Z,25.67
2019-01-20T05:05:15.719Z,23.83
2019-01-20T05:07:42.364Z,23.63
2019-01-20T05:10:11.606Z,23.27
2019-01-20T05:12:38.124Z,22.40
2019-01-20T05:15:08.205Z,21.77
2019-01-20T05:17:34.856Z,21.67
2019-01-20T05:20:02.488Z,20.80
2019-01-20T05:22:29.058Z,22.90
2019-01-20T05:24:55.782Z,23.67
2019-01-20T05:27:22.432Z,21.93
2019-01-20T05:29:50.684Z,24.20
2019-01-20T05:32:17.243Z,22.97
2019-01-20T05:34:43.862Z,23.03
2019-01-20T05:37:10.517Z,23.90
2019-01-20T05:39:36.938Z,23.90
2019-01-20T05:42:03.585Z,20.33
2019-01-20T05:44:30.108Z,20.97
2019-01-20T05:46:56.671Z,23.07
2019-01-20T05:49:23.192Z,21.43
2019-01-20T05:51:49.811Z,22.70
2019-01-20T05:54:16.570Z,21.20
2019-01-20T05:56:43.292Z,20.63
2019-01-20T05:59:09.845Z,20.07
2019-01-20T06:01:36.371Z,20.80
2019-01-20T06:04:03.249Z,21.17
2019-01-20T06:06:29.993Z,21.80
2019-01-20T06:08:56.522Z,20.10
2019-01-20T06:11:23.039Z,19.83
2019-01-20T06:13:49.700Z,20.63
2019-01-20T06:16:16.370Z,19.87
2019-01-20T06:18:43.633Z,19.77
2019-01-20T06:21:10.538Z,20.67
2019-01-20T06:23:37.206Z,22.77
2019-01-20T06:26:03.936Z,21.47
2019-01-20T06:28:30.577Z,21.33
2019-01-20T06:30:57.109Z,22.63
2019-01-20T06:33:23.665Z,22.70
2019-01-20T06:35:50.177Z,21.53
2019-01-20T06:38:16.736Z,19.83
2019-01-20T06:40:43.360Z,21.87
2019-01-20T06:43:10.012Z,19.50
2019-01-20T06:45:36.629Z,18.17
2019-01-20T06:48:03.462Z,20.80
2019-01-20T06:50:29.997Z,19.50
2019-01-20T06:52:56.620Z,20.77
2019-01-20T06:55:23.304Z,20.53
2019-01-20T06:57:49.815Z,19.43
2019-01-20T07:00:19.477Z,21.37
2019-01-20T07:02:47.999Z,22.60
2019-01-20T07:05:14.589Z,20.47
2019-01-20T07:07:41.218Z,21.63
2019-01-20T07:10:10.869Z,21.30
2019-01-20T07:12:37.486Z,23.90
2019-01-20T07:15:10.392Z,21.60
2019-01-20T07:17:37.132Z,23.03
2019-01-20T07:20:06.989Z,21.47
2019-01-20T07:22:33.662Z,21.20
2019-01-20T07:25:00.262Z,21.90
2019-01-20T07:27:26.776Z,20.90
2019-01-20T07:29:53.334Z,19.07
2019-01-20T07:32:19.853Z,19.33
2019-01-20T07:34:46.508Z,20.43
2019-01-20T07:37:13.032Z,16.73
2019-01-20T07:39:39.590Z,19.20
2019-01-20T07:42:06.232Z,15.63
2019-01-20T07:44:32.885Z,15.53
2019-01-20T07:46:59.509Z,15.73
2019-01-20T07:49:26.169Z,15.43
2019-01-20T07:51:52.686Z,15.80
2019-01-20T07:54:19.234Z,16.57
2019-01-20T07:56:45.861Z,16.03
2019-01-20T07:59:12.550Z,18.17
2019-01-20T08:01:39.086Z,17.70
2019-01-20T08:04:05.739Z,18.23
2019-01-20T08:06:32.279Z,19.53
2019-01-20T08:08:58.939Z,16.50
2019-01-20T08:11:25.553Z,16.63
2019-01-20T08:13:52.105Z,17.60
2019-01-20T08:16:18.756Z,16.80
2019-01-20T08:18:45.305Z,18.10
2019-01-20T08:21:11.936Z,16.53
2019-01-20T08:23:38.569Z,16.17
2019-01-20T08:26:05.257Z,18.23
2019-01-20T08:28:31.779Z,16.77
2019-01-20T08:30:58.338Z,15.40
2019-01-20T08:33:24.865Z,16.87
2019-01-20T08:35:51.420Z,16.20
2019-01-20T08:38:18.049Z,16.00
2019-01-20T08:40:44.636Z,16.83
2019-01-20T08:43:11.266Z,16.03
2019-01-20T08:46:02.726Z,15.07
2019-01-20T08:48:29.254Z,15.90
2019-01-20T08:50:56.407Z,17.77
2019-01-20T08:53:23.042Z,16.70
2019-01-20T08:55:49.590Z,17.40
2019-01-20T08:58:16.317Z,16.63
2019-01-20T09:00:42.867Z,15.63
2019-01-20T09:03:09.468Z,17.03
2019-01-20T09:05:36.122Z,16.00
2019-01-20T09:08:03.144Z,15.37
2019-01-20T09:10:31.424Z,16.60
2019-01-20T09:12:59.929Z,14.53
2019-01-20T09:15:27.523Z,14.77
2019-01-20T09:17:54.152Z,16.13
2019-01-20T09:20:21.109Z,16.03
2019-01-20T09:22:47.625Z,16.17
2019-01-20T09:25:16.091Z,17.17
2019-01-20T09:27:42.607Z,17.10
2019-01-20T09:30:20.512Z,16.63
2019-01-20T09:32:47.253Z,17.63
2019-01-20T09:35:14.232Z,14.77
2019-01-20T09:37:40.864Z,16.70
2019-01-20T09:40:10.403Z,16.23
2019-01-20T09:42:37.541Z,17.10
2019-01-20T09:45:07.979Z,17.97
2019-01-20T09:47:34.600Z,17.60
2019-01-20T09:50:01.482Z,18.53
2019-01-20T09:52:29.751Z,18.07
2019-01-20T09:54:56.523Z,18.03
2019-01-20T09:57:23.193Z,18.10
2019-01-20T09:59:51.193Z,20.03
2019-01-20T10:02:17.984Z,18.47
2019-01-20T10:04:45.500Z,20.10
2019-01-20T10:07:12.264Z,19.10
2019-01-20T10:09:38.815Z,20.07
2019-01-20T10:12:05.440Z,20.90
2019-01-20T10:14:32.009Z,21.77
2019-01-20T10:16:58.540Z,21.63
2019-01-20T10:19:25.108Z,21.47
2019-01-20T10:21:51.653Z,22.80
2019-01-20T10:24:18.215Z,23.03
2019-01-20T10:26:44.785Z,23.30
2019-01-20T10:29:11.313Z,21.60
2019-01-20T10:31:37.877Z,22.13
2019-01-20T10:34:04.558Z,22.00
2019-01-20T10:36:31.226Z,23.40
2019-01-20T10:38:57.818Z,22.77
2019-01-20T10:41:24.440Z,24.00
2019-01-20T10:43:51.027Z,22.83
2019-01-20T10:46:17.600Z,23.83
2019-01-20T10:48:44.269Z,22.43
2019-01-20T10:51:11.041Z,24.20
2019-01-20T10:53:37.906Z,22.30
2019-01-20T10:56:04.484Z,24.03
2019-01-20T10:58:31.004Z,22.77
2019-01-20T11:00:57.570Z,22.40
2019-01-20T11:03:24.287Z,23.47
2019-01-20T11:05:50.849Z,22.70
2019-01-20T11:08:17.377Z,22.70
2019-01-20T11:10:43.913Z,25.93
2019-01-20T11:13:10.486Z,25.17
2019-01-20T11:15:37.056Z,22.60
2019-01-20T11:18:03.815Z,22.70
2019-01-20T11:20:30.450Z,23.50
2019-01-20T11:22:57.019Z,24.60
2019-01-20T11:25:27.369Z,25.70
2019-01-20T11:27:55.748Z,23.10
2019-01-20T11:30:22.685Z,22.13
2019-01-20T11:32:49.481Z,22.17
2019-01-20T11:35:18.306Z,22.93
2019-01-20T11:37:45.577Z,22.43
2019-01-20T11:40:14.007Z,22.93
2019-01-20T11:42:41.385Z,23.10
2019-01-20T11:45:22.792Z,24.97
2019-01-20T11:47:49.539Z,23.90
2019-01-20T11:50:16.529Z,23.50
2019-01-20T11:52:43.670Z,24.93
2019-01-20T11:55:13.642Z,23.30
2019-01-20T11:57:40.216Z,23.37
2019-01-20T12:00:13.142Z,23.80
2019-01-20T12:02:39.709Z,24.17
2019-01-20T12:05:09.447Z,22.33
2019-01-20T12:07:36.002Z,22.70
2019-01-20T12:10:05.557Z,22.20
2019-01-20T12:12:32.382Z,23.03
2019-01-20T12:14:59.050Z,19.70
2019-01-20T12:17:25.530Z,23.67
2019-01-20T12:19:52.206Z,22.50
2019-01-20T12:22:18.738Z,20.07
2019-01-20T12:24:45.305Z,20.03
2019-01-20T12:27:11.979Z,21.10
2019-01-20T12:29:38.605Z,20.63
2019-01-20T12:32:05.284Z,20.23
2019-01-20T12:34:32.020Z,19.97
2019-01-20T12:36:58.641Z,19.30
2019-01-20T12:39:25.202Z,19.23
2019-01-20T12:41:51.838Z,19.70
2019-01-20T12:44:18.357Z,20.13
2019-01-20T12:46:44.877Z,21.83
2019-01-20T12:49:11.528Z,20.67
2019-01-20T12:51:38.097Z,22.80
2019-01-20T12:54:04.617Z,23.37
2019-01-20T12:56:31.291Z,20.57
2019-01-20T12:58:57.806Z,21.23
2019-01-20T13:01:24.389Z,22.50
2019-01-20T13:03:51.048Z,22.50
2019-01-20T13:06:17.565Z,22.20
2019-01-20T13:08:44.328Z,21.83
2019-01-20T13:11:10.998Z,22.13
2019-01-20T13:13:37.605Z,19.63
2019-01-20T13:16:04.157Z,21.73
2019-01-20T13:18:30.714Z,22.50
2019-01-20T13:20:57.274Z,21.93
2019-01-20T13:23:24.137Z,21.17
2019-01-20T13:25:50.816Z,21.70
2019-01-20T13:28:17.429Z,20.17
2019-01-20T13:30:43.957Z,20.00
2019-01-20T13:33:10.612Z,20.83
2019-01-20T13:35:37.138Z,21.07
2019-01-20T13:38:09.426Z,21.77
2019-01-20T13:40:42.600Z,20.80
2019-01-20T13:43:09.123Z,22.90
2019-01-20T13:45:35.704Z,20.93
2019-01-20T13:48:02.334Z,20.80
2019-01-20T13:50:28.849Z,23.33
2019-01-20T13:52:55.431Z,22.13
2019-01-20T13:55:21.964Z,20.93
2019-01-20T13:57:48.552Z,22.33
2019-01-20T14:00:18.307Z,22.00
2019-01-20T14:02:45.037Z,18.30
2019-01-20T14:05:11.656Z,16.30
2019-01-20T14:07:38.243Z,20.07
2019-01-20T14:10:14.121Z,20.30
2019-01-20T14:12:40.890Z,20.03
2019-01-20T14:15:10.469Z,19.23
2019-01-20T14:17:38.465Z,19.20
2019-01-20T14:20:14.831Z,19.13
2019-01-20T14:22:41.401Z,19.17
2019-01-20T14:25:11.277Z,18.70
2019-01-20T14:27:37.853Z,19.13
2019-01-20T14:30:08.330Z,20.47
2019-01-20T14:32:34.885Z,20.70
2019-01-20T14:35:01.475Z,20.73
2019-01-20T14:37:28.024Z,21.27
2019-01-20T14:39:54.751Z,21.47
2019-01-20T14:42:21.417Z,21.60
2019-01-20T14:44:49.748Z,19.13
2019-01-20T14:47:16.521Z,20.07
2019-01-20T14:49:43.650Z,19.50
2019-01-20T14:52:10.777Z,18.73
2019-01-20T14:54:38.051Z,18.93
2019-01-20T14:57:04.800Z,19.83
2019-01-20T14:59:32.420Z,19.27
2019-01-20T15:01:59.088Z,18.77
2019-01-20T15:04:26.310Z,17.60
2019-01-20T15:06:53.777Z,20.33
2019-01-20T15:09:20.553Z,20.03
2019-01-20T15:11:47.166Z,21.17
2019-01-20T15:14:13.856Z,20.33
2019-01-20T15:16:40.476Z,18.93
2019-01-20T15:19:07.151Z,20.00
2019-01-20T15:21:33.868Z,18.60
2019-01-20T15:24:01.409Z,19.37
2019-01-20T15:26:28.172Z,17.17
2019-01-20T15:28:54.839Z,18.33
2019-01-20T15:31:21.615Z,17.93
2019-01-20T15:33:48.249Z,17.23
2019-01-20T15:36:15.015Z,18.80
2019-01-20T15:38:41.751Z,17.57
2019-01-20T15:41:08.424Z,19.67
2019-01-20T15:43:35.060Z,18.30
2019-01-20T15:46:02.290Z,19.17
2019-01-20T15:48:28.953Z,17.97
2019-01-20T15:50:55.522Z,19.67
2019-01-20T15:53:22.206Z,19.40
2019-01-20T15:55:48.874Z,18.00
2019-01-20T15:58:15.484Z,18.87
2019-01-20T16:00:43.748Z,21.43
2019-01-20T16:03:10.420Z,19.13
2019-01-20T16:05:37.004Z,17.90
2019-01-20T16:08:03.625Z,18.17
2019-01-20T16:10:30.196Z,18.97
2019-01-20T16:12:56.726Z,19.00
2019-01-20T16:15:26.315Z,17.27
2019-01-20T16:17:54.029Z,17.30
2019-01-20T16:20:22.705Z,20.30
2019-01-20T16:22:50.273Z,16.17
2019-01-20T16:25:26.023Z,17.83
2019-01-20T16:27:52.836Z,18.00
2019-01-20T16:30:22.472Z,18.67
2019-01-20T16:32:49.180Z,20.00
2019-01-20T16:35:15.850Z,18.77
2019-01-20T16:37:44.113Z,19.13
2019-01-20T16:40:19.964Z,20.00
2019-01-20T16:42:47.328Z,18.37
2019-01-20T16:45:16.552Z,18.97
2019-01-20T16:47:43.122Z,16.13
2019-01-20T16:50:18.433Z,19.17
2019-01-20T16:52:45.397Z,18.37
2019-01-20T16:55:13.224Z,22.10
2019-01-20T16:57:39.894Z,20.10
2019-01-20T17:00:13.169Z,20.07
2019-01-20T17:02:39.633Z,21.00
2019-01-20T17:05:08.208Z,18.80
2019-01-20T17:07:34.740Z,18.30
2019-01-20T17:10:01.371Z,17.47
2019-01-20T17:12:27.873Z,20.10
2019-01-20T17:14:54.400Z,18.63
2019-01-20T17:17:21.076Z,17.60
2019-01-20T17:19:49.301Z,16.93
2019-01-20T17:22:15.956Z,17.70
2019-01-20T17:24:42.512Z,19.37
2019-01-20T17:27:09.126Z,18.77
2019-01-20T17:29:35.657Z,17.33
2019-01-20T17:32:03.597Z,19.00
2019-01-20T17:34:30.199Z,19.60
2019-01-20T17:36:56.782Z,19.73
2019-01-20T17:39:23.397Z,16.93
2019-01-20T17:41:50.069Z,19.00
2019-01-20T17:44:16.553Z,17.10
2019-01-20T17:46:43.282Z,19.50
2019-01-20T17:49:09.905Z,19.73
2019-01-20T17:51:37.775Z,18.40
2019-01-20T17:54:04.526Z,19.60
2019-01-20T17:56:32.800Z,20.00
2019-01-20T17:58:59.488Z,19.23
2019-01-20T18:01:26.158Z,17.67
2019-01-20T18:03:52.674Z,17.20
2019-01-20T18:06:20.100Z,18.20
2019-01-20T18:08:46.773Z,19.33
2019-01-20T18:11:13.501Z,16.63
2019-01-20T18:13:40.285Z,19.37
2019-01-20T18:16:07.340Z,20.10
2019-01-20T18:18:33.959Z,17.60
2019-01-20T18:21:01.334Z,17.20
2019-01-20T18:23:28.073Z,17.23
2019-01-20T18:25:54.779Z,15.83
2019-01-20T18:28:21.300Z,15.10
2019-01-20T18:30:47.932Z,16.37
2019-01-20T18:33:14.795Z,15.33
2019-01-20T18:35:41.421Z,14.93
2019-01-20T18:38:08.188Z,16.33
2019-01-20T18:40:34.841Z,15.50
2019-01-20T18:43:01.402Z,15.23
2019-01-20T18:45:30.274Z,18.13
2019-01-20T18:47:57.081Z,15.53
2019-01-20T18:50:25.644Z,15.20
2019-01-20T18:52:52.425Z,13.80
2019-01-20T18:55:19.997Z,14.13
2019-01-20T18:57:46.612Z,14.97
2019-01-20T19:00:17.088Z,14.80
2019-01-20T19:02:43.708Z,13.27
2019-01-20T19:05:13.985Z,13.33
2019-01-20T19:07:42.462Z,15.60
2019-01-20T19:10:14.431Z,15.13
2019-01-20T19:12:41.237Z,14.57
2019-01-20T19:15:11.109Z,14.97
2019-01-20T19:17:37.757Z,14.30
2019-01-20T19:20:08.193Z,16.20
2019-01-20T19:22:34.714Z,16.63
2019-01-20T19:25:04.942Z,15.47
2019-01-20T19:27:31.614Z,15.20
2019-01-20T19:29:58.203Z,15.60
2019-01-20T19:32:24.824Z,16.67
2019-01-20T19:34:51.393Z,15.37
2019-01-20T19:37:18.075Z,16.53
2019-01-20T19:39:50.550Z,16.33
2019-01-20T19:42:13.425Z,16.47
2019-01-20T19:44:39.963Z,16.60
2019-01-20T19:47:06.593Z,16.17
2019-01-20T19:49:33.230Z,16.43
2019-01-20T19:51:59.794Z,16.47
2019-01-20T19:54:26.314Z,16.13
2019-01-20T19:56:53.033Z,18.13
2019-01-20T19:59:19.648Z,18.33
2019-01-20T20:01:46.321Z,17.40
2019-01-20T20:04:12.922Z,15.87
2019-01-20T20:06:39.897Z,16.40
2019-01-20T20:09:10.099Z,16.77
2019-01-20T20:11:36.880Z,16.77
2019-01-20T20:14:03.555Z,17.07
2019-01-20T20:16:30.229Z,16.03
2019-01-20T20:18:56.697Z,16.63
2019-01-20T20:21:23.207Z,17.73
2019-01-20T20:23:49.738Z,17.00
2019-01-20T20:26:16.265Z,18.00
2019-01-20T20:28:42.834Z,18.63
2019-01-20T20:31:09.497Z,15.60
2019-01-20T20:33:36.211Z,17.30
2019-01-20T20:36:03.102Z,16.80
2019-01-20T20:38:29.669Z,15.43
2019-01-20T20:40:56.248Z,17.30
2019-01-20T20:43:22.824Z,17.63
2019-01-20T20:45:49.425Z,16.57
2019-01-20T20:48:16.139Z,17.07
2019-01-20T20:50:42.749Z,18.10
2019-01-20T20:53:09.262Z,19.27
2019-01-20T20:55:35.955Z,19.10
2019-01-20T20:58:03.088Z,16.93
2019-01-20T21:00:33.303Z,15.77
2019-01-20T21:03:02.301Z,17.50
2019-01-20T21:05:28.985Z,15.77
2019-01-20T21:07:55.814Z,17.50
2019-01-20T21:10:22.384Z,17.93
2019-01-20T21:12:49.057Z,16.90
2019-01-20T21:15:15.724Z,18.00
2019-01-20T21:17:48.195Z,17.60
2019-01-20T21:20:13.920Z,18.67
2019-01-20T21:22:40.751Z,15.70
2019-01-20T21:25:09.598Z,17.57
2019-01-20T21:27:36.373Z,17.80
2019-01-20T21:30:06.787Z,17.10
2019-01-20T21:32:33.454Z,16.80
2019-01-20T21:34:59.989Z,17.10
2019-01-20T21:37:26.561Z,18.30
2019-01-20T21:39:53.295Z,17.13
2019-01-20T21:42:19.851Z,17.00
2019-01-20T21:44:46.487Z,18.00
2019-01-20T21:47:13.139Z,16.80
2019-01-20T21:49:39.698Z,18.13
2019-01-20T21:52:06.221Z,18.17
2019-01-20T21:54:32.813Z,19.50
2019-01-20T21:56:59.440Z,18.83
2019-01-20T21:59:26.066Z,18.63
2019-01-20T22:01:52.630Z,18.00
2019-01-20T22:04:19.214Z,18.67
2019-01-20T22:06:45.932Z,18.57
2019-01-20T22:09:12.519Z,19.57
2019-01-20T22:11:40.754Z,19.87
2019-01-20T22:14:07.280Z,18.87
2019-01-20T22:16:33.930Z,20.53
2019-01-20T22:19:00.526Z,17.80
2019-01-20T22:21:27.099Z,19.27
2019-01-20T22:23:53.626Z,17.70
2019-01-20T22:26:20.184Z,17.67
2019-01-20T22:28:46.721Z,18.80
2019-01-20T22:31:13.347Z,18.40
2019-01-20T22:33:39.872Z,18.40
2019-01-20T22:36:06.532Z,19.60
2019-01-20T22:38:32.963Z,19.27
2019-01-20T22:40:59.537Z,18.80
2019-01-20T22:43:26.207Z,18.10
2019-01-20T22:45:52.929Z,20.90
2019-01-20T22:48:19.609Z,18.77
2019-01-20T22:50:46.184Z,20.23
2019-01-20T22:53:12.693Z,18.70
2019-01-20T22:55:39.281Z,20.73
2019-01-20T22:58:06.067Z,17.37
2019-01-20T23:00:41.129Z,20.17
2019-01-20T23:03:07.810Z,18.77
2019-01-20T23:05:36.086Z,19.97
2019-01-20T23:08:02.961Z,18.50
2019-01-20T23:10:31.376Z,18.67
2019-01-20T23:12:57.905Z,18.97
2019-01-20T23:15:24.513Z,18.90
2019-01-20T23:17:51.229Z,19.80
2019-01-20T23:20:17.988Z,21.67
2019-01-20T23:22:44.847Z,20.80
2019-01-20T23:25:11.478Z,18.50
2019-01-20T23:27:38.243Z,19.17
2019-01-20T23:30:11.094Z,18.87
2019-01-20T23:32:39.332Z,17.17
2019-01-20T23:35:06.730Z,17.80
2019-01-20T23:37:33.353Z,20.93
2019-01-20T23:39:59.882Z,19.13
2019-01-20T23:42:26.447Z,18.40
2019-01-20T23:44:52.969Z,20.03
2019-01-20T23:47:19.549Z,18.30
2019-01-20T23:49:46.175Z,20.10
2019-01-20T23:52:12.782Z,18.50
2019-01-20T23:54:39.345Z,19.40
2019-01-20T23:57:05.912Z,18.27
2019-01-20T23:59:32.545Z,15.63
